createdAt,value
2018-12-13T00:00:33.282Z,-0.12
2018-12-13T00:01:33.191Z,-0.22
2018-12-13T00:02:33.104Z,-0.26
2018-12-13T00:03:33.019Z,-0.29
2018-12-13T00:04:33.183Z,-0.41
2018-12-13T00:05:32.847Z,-0.35
2018-12-13T00:06:33.502Z,-0.38
2018-12-13T00:07:32.673Z,-0.28
2018-12-13T00:08:32.589Z,-0.33
2018-12-13T00:09:32.502Z,-0.26
2018-12-13T00:10:32.415Z,-0.28
2018-12-13T00:11:32.329Z,-0.23
2018-12-13T00:12:32.243Z,-0.28
2018-12-13T00:13:32.156Z,-0.25
2018-12-13T00:14:32.070Z,-0.26
2018-12-13T00:15:31.984Z,-0.25
2018-12-13T00:16:32.794Z,-0.25
2018-12-13T00:17:31.812Z,-0.20
2018-12-13T00:18:31.725Z,-0.25
2018-12-13T00:19:31.644Z,-0.26
2018-12-13T00:20:31.554Z,-0.30
2018-12-13T00:21:31.467Z,-0.29
2018-12-13T00:22:31.379Z,-0.29
2018-12-13T00:23:31.293Z,-0.30
2018-12-13T00:24:31.207Z,-0.26
2018-12-13T00:25:31.122Z,-0.40
2018-12-13T00:26:31.033Z,-0.35
2018-12-13T00:27:30.948Z,-0.35
2018-12-13T00:28:30.862Z,-0.41
2018-12-13T00:29:30.776Z,-0.47
2018-12-13T00:30:30.688Z,-0.46
2018-12-13T00:31:30.605Z,-0.47
2018-12-13T00:32:30.516Z,-0.41
2018-12-13T00:33:30.430Z,-0.41
2018-12-13T00:34:30.343Z,-0.41
2018-12-13T00:35:30.257Z,-0.44
2018-12-13T00:36:30.176Z,-0.51
2018-12-13T00:37:30.084Z,-0.41
2018-12-13T00:38:30.259Z,-0.41
2018-12-13T00:39:29.912Z,-0.53
2018-12-13T00:40:29.824Z,-0.44
2018-12-13T00:41:29.739Z,-0.46
2018-12-13T00:42:29.651Z,-0.41
2018-12-13T00:43:29.566Z,-0.48
2018-12-13T00:44:29.479Z,-0.37
2018-12-13T00:45:29.393Z,-0.53
2018-12-13T00:46:29.308Z,-0.62
2018-12-13T00:47:29.221Z,-0.51
2018-12-13T00:48:29.135Z,-0.51
2018-12-13T00:49:29.051Z,-0.56
2018-12-13T00:50:28.960Z,-0.59
2018-12-13T00:51:28.873Z,-0.59
2018-12-13T00:52:28.788Z,-0.61
2018-12-13T00:53:28.703Z,-0.47
2018-12-13T00:54:28.615Z,-0.54
2018-12-13T00:55:28.776Z,-0.62
2018-12-13T00:56:28.441Z,-0.61
2018-12-13T00:57:28.357Z,-0.61
2018-12-13T00:58:28.267Z,-0.53
2018-12-13T00:59:28.182Z,-0.58
2018-12-13T01:00:28.094Z,-0.61
2018-12-13T01:01:28.009Z,-0.64
2018-12-13T01:02:27.922Z,-0.65
2018-12-13T01:03:27.835Z,-0.58
2018-12-13T01:04:27.749Z,-0.58
2018-12-13T01:05:27.667Z,-0.61
2018-12-13T01:06:27.575Z,-0.58
2018-12-13T01:07:27.489Z,-0.62
2018-12-13T01:08:27.408Z,-0.62
2018-12-13T01:09:27.317Z,-0.68
2018-12-13T01:10:27.231Z,-0.64
2018-12-13T01:11:27.143Z,-0.68
2018-12-13T01:12:27.057Z,-0.56
2018-12-13T01:13:26.970Z,-0.53
2018-12-13T01:14:26.884Z,-0.56
2018-12-13T01:15:26.799Z,-0.59
2018-12-13T01:16:26.813Z,-0.61
2018-12-13T01:17:26.623Z,-0.59
2018-12-13T01:18:26.537Z,-0.62
2018-12-13T01:19:26.451Z,-0.56
2018-12-13T01:20:26.364Z,-0.66
2018-12-13T01:21:26.279Z,-0.65
2018-12-13T01:22:26.192Z,-0.61
2018-12-13T01:23:26.103Z,-0.65
2018-12-13T01:24:26.018Z,-0.68
2018-12-13T01:25:25.934Z,-0.65
2018-12-13T01:26:25.845Z,-0.54
2018-12-13T01:27:25.762Z,-0.65
2018-12-13T01:28:25.673Z,-0.61
2018-12-13T01:29:25.586Z,-0.71
2018-12-13T01:30:25.498Z,-0.62
2018-12-13T01:31:25.412Z,-0.65
2018-12-13T01:32:25.326Z,-0.64
2018-12-13T01:33:25.240Z,-0.59
2018-12-13T01:34:25.153Z,-0.69
2018-12-13T01:35:25.065Z,-0.62
2018-12-13T01:36:24.982Z,-0.68
2018-12-13T01:37:24.893Z,-0.69
2018-12-13T01:38:24.805Z,-0.69
2018-12-13T01:39:24.723Z,-0.59
2018-12-13T01:40:24.632Z,-0.59
2018-12-13T01:41:24.548Z,-0.62
2018-12-13T01:42:24.459Z,-0.64
2018-12-13T01:43:24.374Z,-0.66
2018-12-13T01:44:24.287Z,-0.65
2018-12-13T01:45:24.201Z,-0.61
2018-12-13T01:46:24.114Z,-0.65
2018-12-13T01:47:24.025Z,-0.65
2018-12-13T01:48:23.943Z,-0.64
2018-12-13T01:49:23.853Z,-0.64
2018-12-13T01:50:23.764Z,-0.66
2018-12-13T01:51:23.679Z,-0.69
2018-12-13T01:52:23.594Z,-0.69
2018-12-13T01:53:23.524Z,-0.74
2018-12-13T01:54:23.419Z,-0.71
2018-12-13T01:55:23.332Z,-0.77
2018-12-13T01:56:23.246Z,-0.74
2018-12-13T01:57:23.210Z,-0.84
2018-12-13T01:58:23.073Z,-0.86
2018-12-13T01:59:22.986Z,-0.84
2018-12-13T02:00:22.901Z,-0.93
2018-12-13T02:01:22.813Z,-0.90
2018-12-13T02:02:22.725Z,-0.90
2018-12-13T02:03:22.639Z,-0.86
2018-12-13T02:04:22.587Z,-0.91
2018-12-13T02:05:22.466Z,-0.90
2018-12-13T02:06:22.380Z,-0.93
2018-12-13T02:07:22.294Z,-0.90
2018-12-13T02:08:22.205Z,-0.90
2018-12-13T02:09:22.119Z,-0.87
2018-12-13T02:10:22.035Z,-0.90
2018-12-13T02:11:21.947Z,-0.93
2018-12-13T02:12:21.862Z,-0.91
2018-12-13T02:13:21.773Z,-0.86
2018-12-13T02:14:21.688Z,-0.93
2018-12-13T02:15:21.601Z,-0.90
2018-12-13T02:16:21.512Z,-0.96
2018-12-13T02:17:21.528Z,-0.84
2018-12-13T02:18:21.338Z,-0.84
2018-12-13T02:19:21.252Z,-0.95
2018-12-13T02:20:21.165Z,-0.96
2018-12-13T02:21:21.079Z,-0.87
2018-12-13T02:22:20.990Z,-0.84
2018-12-13T02:23:20.904Z,-0.80
2018-12-13T02:24:20.817Z,-0.87
2018-12-13T02:25:20.731Z,-0.83
2018-12-13T02:26:20.644Z,-0.82
2018-12-13T02:27:20.557Z,-0.90
2018-12-13T02:28:20.470Z,-0.95
2018-12-13T02:29:20.386Z,-0.79
2018-12-13T02:30:20.297Z,-0.77
2018-12-13T02:31:20.210Z,-0.83
2018-12-13T02:32:20.126Z,-0.80
2018-12-13T02:33:20.044Z,-0.74
2018-12-13T02:34:19.999Z,-0.71
2018-12-13T02:35:19.862Z,-0.74
2018-12-13T02:36:19.775Z,-0.61
2018-12-13T02:37:19.690Z,-0.64
2018-12-13T02:38:19.605Z,-0.62
2018-12-13T02:39:19.516Z,-0.58
2018-12-13T02:40:19.432Z,-0.61
2018-12-13T02:41:19.342Z,-0.51
2018-12-13T02:42:19.255Z,-0.56
2018-12-13T02:43:19.169Z,-0.48
2018-12-13T02:44:19.088Z,-0.54
2018-12-13T02:45:18.998Z,-0.43
2018-12-13T02:46:18.908Z,-0.22
2018-12-13T02:47:18.825Z,-0.11
2018-12-13T02:48:18.737Z,-0.08
2018-12-13T02:49:18.651Z,-0.01
2018-12-13T02:50:18.562Z,0.21
2018-12-13T02:51:18.476Z,0.16
2018-12-13T02:52:18.390Z,0.11
2018-12-13T02:53:18.303Z,0.17
2018-12-13T02:54:18.217Z,0.16
2018-12-13T02:55:18.131Z,0.11
2018-12-13T02:56:18.044Z,0.18
2018-12-13T02:57:17.961Z,0.16
2018-12-13T02:58:17.871Z,0.14
2018-12-13T02:59:22.821Z,0.27
2018-12-13T03:00:17.701Z,0.32
2018-12-13T03:01:17.619Z,0.34
2018-12-13T03:02:17.527Z,0.47
2018-12-13T03:03:17.440Z,0.57
2018-12-13T03:04:17.357Z,0.62
2018-12-13T03:05:17.368Z,0.56
2018-12-13T03:06:17.183Z,0.36
2018-12-13T03:07:17.095Z,0.36
2018-12-13T03:08:17.009Z,0.39
2018-12-13T03:09:16.922Z,0.25
2018-12-13T03:10:16.837Z,0.25
2018-12-13T03:11:16.749Z,0.17
2018-12-13T03:12:16.663Z,0.14
2018-12-13T03:13:16.579Z,0.21
2018-12-13T03:14:16.508Z,0.09
2018-12-13T03:15:16.507Z,0.07
2018-12-13T03:16:16.319Z,0.03
2018-12-13T03:17:16.233Z,0.16
2018-12-13T03:18:16.146Z,-0.02
2018-12-13T03:19:16.061Z,-0.12
2018-12-13T03:20:15.974Z,-0.11
2018-12-13T03:21:15.890Z,-0.15
2018-12-13T03:22:15.801Z,-0.10
2018-12-13T03:23:15.715Z,-0.22
2018-12-13T03:24:15.630Z,-0.15
2018-12-13T03:25:15.547Z,-0.15
2018-12-13T03:26:15.460Z,-0.22
2018-12-13T03:27:15.369Z,-0.14
2018-12-13T03:28:15.284Z,-0.12
2018-12-13T03:29:15.198Z,-0.19
2018-12-13T03:30:15.116Z,-0.11
2018-12-13T03:31:15.026Z,-0.15
2018-12-13T03:32:14.940Z,0.04
2018-12-13T03:33:14.870Z,0.17
2018-12-13T03:34:14.766Z,0.31
2018-12-13T03:35:14.681Z,0.50
2018-12-13T03:36:14.694Z,0.49
2018-12-13T03:37:20.407Z,0.57
2018-12-13T03:38:14.422Z,0.56
2018-12-13T03:39:14.334Z,0.50
2018-12-13T03:40:14.251Z,0.50
2018-12-13T03:41:14.163Z,0.50
2018-12-13T03:42:14.076Z,0.35
2018-12-13T03:43:13.988Z,0.34
2018-12-13T03:44:13.903Z,0.31
2018-12-13T03:45:13.818Z,0.32
2018-12-13T03:46:13.732Z,0.31
2018-12-13T03:47:13.648Z,0.36
2018-12-13T03:48:13.558Z,0.35
2018-12-13T03:49:13.471Z,0.42
2018-12-13T03:50:13.384Z,0.47
2018-12-13T03:51:13.298Z,0.42
2018-12-13T03:52:13.215Z,0.43
2018-12-13T03:53:13.125Z,0.34
2018-12-13T03:54:13.040Z,0.39
2018-12-13T03:55:12.954Z,0.34
2018-12-13T03:56:12.868Z,0.46
2018-12-13T03:57:12.782Z,0.46
2018-12-13T03:58:12.695Z,0.46
2018-12-13T03:59:12.610Z,0.47
2018-12-13T04:00:12.523Z,0.56
2018-12-13T04:01:12.438Z,0.47
2018-12-13T04:02:12.350Z,0.40
2018-12-13T04:03:12.266Z,0.49
2018-12-13T04:04:12.190Z,0.53
2018-12-13T04:05:12.095Z,0.59
2018-12-13T04:06:12.009Z,0.65
2018-12-13T04:07:12.024Z,0.72
2018-12-13T04:08:11.834Z,0.75
2018-12-13T04:09:11.748Z,0.68
2018-12-13T04:10:11.662Z,0.80
2018-12-13T04:11:11.591Z,0.79
2018-12-13T04:12:11.589Z,0.74
2018-12-13T04:13:11.405Z,0.68
2018-12-13T04:14:11.317Z,0.69
2018-12-13T04:15:11.233Z,0.80
2018-12-13T04:16:11.145Z,0.90
2018-12-13T04:17:11.060Z,0.90
2018-12-13T04:18:10.973Z,0.92
2018-12-13T04:19:10.889Z,0.89
2018-12-13T04:20:10.804Z,0.90
2018-12-13T04:21:10.716Z,0.90
2018-12-13T04:22:10.629Z,0.83
2018-12-13T04:23:10.547Z,0.75
2018-12-13T04:24:10.457Z,0.82
2018-12-13T04:25:10.371Z,0.77
2018-12-13T04:26:10.284Z,0.72
2018-12-13T04:27:10.197Z,0.79
2018-12-13T04:28:10.112Z,0.65
2018-12-13T04:29:10.027Z,0.68
2018-12-13T04:30:09.939Z,0.56
2018-12-13T04:31:09.857Z,0.56
2018-12-13T04:32:09.767Z,0.42
2018-12-13T04:33:09.683Z,0.45
2018-12-13T04:34:09.595Z,0.56
2018-12-13T04:35:09.510Z,0.62
2018-12-13T04:36:09.423Z,0.72
2018-12-13T04:37:09.339Z,0.64
2018-12-13T04:38:09.248Z,0.77
2018-12-13T04:39:09.163Z,0.77
2018-12-13T04:40:09.076Z,0.83
2018-12-13T04:41:08.992Z,0.72
2018-12-13T04:42:08.904Z,0.82
2018-12-13T04:43:08.818Z,0.86
2018-12-13T04:44:08.732Z,0.80
2018-12-13T04:45:08.648Z,0.80
2018-12-13T04:46:08.560Z,0.89
2018-12-13T04:47:08.474Z,0.86
2018-12-13T04:48:08.390Z,0.92
2018-12-13T04:49:08.314Z,0.94
2018-12-13T04:50:08.215Z,0.86
2018-12-13T04:51:08.127Z,0.89
2018-12-13T04:52:08.040Z,0.77
2018-12-13T04:53:07.955Z,0.75
2018-12-13T04:54:07.868Z,0.75
2018-12-13T04:55:07.781Z,0.80
2018-12-13T04:56:07.695Z,0.79
2018-12-13T04:57:07.610Z,0.75
2018-12-13T04:58:07.525Z,0.75
2018-12-13T04:59:07.435Z,0.83
2018-12-13T05:00:07.349Z,0.74
2018-12-13T05:01:07.262Z,0.92
2018-12-13T05:02:07.175Z,0.74
2018-12-13T05:03:07.089Z,0.86
2018-12-13T05:04:07.053Z,0.77
2018-12-13T05:05:06.916Z,0.86
2018-12-13T05:06:06.828Z,0.90
2018-12-13T05:07:06.743Z,0.93
2018-12-13T05:08:06.656Z,0.90
2018-12-13T05:09:06.572Z,0.77
2018-12-13T05:10:06.482Z,0.86
2018-12-13T05:11:06.395Z,0.80
2018-12-13T05:12:06.309Z,0.79
2018-12-13T05:13:06.222Z,0.74
2018-12-13T05:14:06.135Z,0.68
2018-12-13T05:15:06.050Z,0.75
2018-12-13T05:16:05.962Z,0.74
2018-12-13T05:17:05.877Z,0.79
2018-12-13T05:18:05.790Z,0.75
2018-12-13T05:19:05.704Z,0.77
2018-12-13T05:20:05.615Z,0.71
2018-12-13T05:21:05.529Z,0.69
2018-12-13T05:22:05.443Z,0.65
2018-12-13T05:23:05.356Z,0.68
2018-12-13T05:24:05.270Z,0.69
2018-12-13T05:25:05.185Z,0.62
2018-12-13T05:26:05.096Z,0.69
2018-12-13T05:27:05.009Z,0.71
2018-12-13T05:28:04.924Z,0.77
2018-12-13T05:29:04.836Z,0.75
2018-12-13T05:30:04.749Z,0.77
2018-12-13T05:31:04.662Z,0.71
2018-12-13T05:32:04.576Z,0.72
2018-12-13T05:33:04.490Z,0.69
2018-12-13T05:34:04.402Z,0.71
2018-12-13T05:35:04.315Z,0.72
2018-12-13T05:36:04.229Z,0.66
2018-12-13T05:37:04.143Z,0.75
2018-12-13T05:38:04.059Z,0.83
2018-12-13T05:39:03.969Z,0.72
2018-12-13T05:40:03.885Z,0.79
2018-12-13T05:41:03.796Z,0.80
2018-12-13T05:42:03.709Z,0.72
2018-12-13T05:43:03.621Z,0.80
2018-12-13T05:44:03.535Z,0.82
2018-12-13T05:45:03.450Z,0.75
2018-12-13T05:46:03.361Z,0.77
2018-12-13T05:47:03.275Z,0.79
2018-12-13T05:48:03.188Z,0.69
2018-12-13T05:49:03.102Z,0.75
2018-12-13T05:50:03.015Z,0.72
2018-12-13T05:51:02.927Z,0.68
2018-12-13T05:52:02.842Z,0.65
2018-12-13T05:53:02.754Z,0.68
2018-12-13T05:54:02.669Z,0.61
2018-12-13T05:55:02.582Z,0.62
2018-12-13T05:56:02.495Z,0.64
2018-12-13T05:57:02.408Z,0.77
2018-12-13T05:58:02.322Z,0.68
2018-12-13T05:59:02.235Z,0.75
2018-12-13T06:00:02.150Z,0.82
2018-12-13T06:01:02.063Z,0.80
2018-12-13T06:02:01.978Z,0.79
2018-12-13T06:03:01.892Z,0.79
2018-12-13T06:04:01.803Z,0.83
2018-12-13T06:05:01.716Z,0.89
2018-12-13T06:06:01.630Z,0.89
2018-12-13T06:07:01.543Z,0.93
2018-12-13T06:08:01.459Z,0.72
2018-12-13T06:09:01.371Z,0.74
2018-12-13T06:10:01.287Z,0.79
2018-12-13T06:11:01.199Z,0.72
2018-12-13T06:12:01.112Z,0.71
2018-12-13T06:13:01.072Z,0.69
2018-12-13T06:14:00.938Z,0.82
2018-12-13T06:15:00.853Z,0.77
2018-12-13T06:16:00.769Z,0.77
2018-12-13T06:17:00.682Z,0.72
2018-12-13T06:18:06.648Z,0.79
2018-12-13T06:19:00.508Z,0.72
2018-12-13T06:20:00.424Z,0.77
2018-12-13T06:21:00.337Z,0.79
2018-12-13T06:22:00.254Z,0.77
2018-12-13T06:23:00.164Z,0.69
2018-12-13T06:24:00.078Z,0.71
2018-12-13T06:24:59.995Z,0.66
2018-12-13T06:25:59.906Z,0.69
2018-12-13T06:26:59.818Z,0.62
2018-12-13T06:27:59.733Z,0.69
2018-12-13T06:28:59.652Z,0.69
2018-12-13T06:29:59.567Z,0.65
2018-12-13T06:30:59.474Z,0.68
2018-12-13T06:31:59.389Z,0.69
2018-12-13T06:32:59.303Z,0.74
2018-12-13T06:33:59.218Z,0.71
2018-12-13T06:34:59.130Z,0.72
2018-12-13T06:35:59.045Z,0.68
2018-12-13T06:36:58.959Z,0.62
2018-12-13T06:38:01.417Z,0.61
2018-12-13T06:38:58.785Z,0.64
2018-12-13T06:39:58.700Z,0.62
2018-12-13T06:40:58.613Z,0.61
2018-12-13T06:41:58.527Z,0.57
2018-12-13T06:42:58.441Z,0.59
2018-12-13T06:43:58.355Z,0.56
2018-12-13T06:44:58.270Z,0.62
2018-12-13T06:45:58.240Z,0.66
2018-12-13T06:46:58.097Z,0.66
2018-12-13T06:47:58.011Z,0.65
2018-12-13T06:48:57.924Z,0.69
2018-12-13T06:49:57.839Z,0.71
2018-12-13T06:50:57.753Z,0.66
2018-12-13T06:51:57.667Z,0.75
2018-12-13T06:52:57.586Z,0.66
2018-12-13T06:53:57.495Z,0.75
2018-12-13T06:54:57.410Z,0.71
2018-12-13T06:55:57.322Z,0.80
2018-12-13T06:56:57.236Z,0.68
2018-12-13T06:57:57.149Z,0.69
2018-12-13T06:58:57.163Z,0.66
2018-12-13T06:59:56.978Z,0.69
2018-12-13T07:00:56.891Z,0.64
2018-12-13T07:01:56.802Z,0.69
2018-12-13T07:02:56.745Z,0.68
2018-12-13T07:03:56.631Z,0.74
2018-12-13T07:04:56.545Z,0.66
2018-12-13T07:05:56.457Z,0.69
2018-12-13T07:06:56.370Z,0.65
2018-12-13T07:07:56.283Z,0.69
2018-12-13T07:08:56.198Z,0.64
2018-12-13T07:09:56.112Z,0.69
2018-12-13T07:10:56.023Z,0.62
2018-12-13T07:11:55.938Z,0.64
2018-12-13T07:12:55.851Z,0.57
2018-12-13T07:13:55.762Z,0.64
2018-12-13T07:14:55.677Z,0.57
2018-12-13T07:15:55.589Z,0.61
2018-12-13T07:16:55.503Z,0.59
2018-12-13T07:17:55.416Z,0.69
2018-12-13T07:18:55.335Z,0.59
2018-12-13T07:19:55.243Z,0.71
2018-12-13T07:20:55.156Z,0.53
2018-12-13T07:21:55.070Z,0.56
2018-12-13T07:22:54.982Z,0.57
2018-12-13T07:23:54.897Z,0.56
2018-12-13T07:24:54.811Z,0.53
2018-12-13T07:25:54.726Z,0.57
2018-12-13T07:26:54.636Z,0.59
2018-12-13T07:27:54.550Z,0.53
2018-12-13T07:28:54.466Z,0.56
2018-12-13T07:29:54.379Z,0.57
2018-12-13T07:30:54.289Z,0.57
2018-12-13T07:31:54.201Z,0.45
2018-12-13T07:32:54.116Z,0.46
2018-12-13T07:33:54.027Z,0.59
2018-12-13T07:34:53.943Z,0.61
2018-12-13T07:35:53.856Z,0.53
2018-12-13T07:36:53.770Z,0.62
2018-12-13T07:37:53.680Z,0.59
2018-12-13T07:38:53.594Z,0.49
2018-12-13T07:39:53.508Z,0.52
2018-12-13T07:40:53.420Z,0.57
2018-12-13T07:41:53.335Z,0.49
2018-12-13T07:42:53.247Z,0.56
2018-12-13T07:43:53.160Z,0.53
2018-12-13T07:44:53.074Z,0.57
2018-12-13T07:45:52.987Z,0.57
2018-12-13T07:46:52.900Z,0.59
2018-12-13T07:47:52.815Z,0.56
2018-12-13T07:48:56.387Z,0.53
2018-12-13T07:49:52.639Z,0.53
2018-12-13T07:50:52.551Z,0.53
2018-12-13T07:51:52.464Z,0.56
2018-12-13T07:52:52.377Z,0.53
2018-12-13T07:53:52.291Z,0.57
2018-12-13T07:54:52.205Z,0.56
2018-12-13T07:55:52.118Z,0.57
2018-12-13T07:56:52.031Z,0.49
2018-12-13T07:57:51.942Z,0.53
2018-12-13T07:58:51.857Z,0.43
2018-12-13T07:59:51.769Z,0.61
2018-12-13T08:00:51.683Z,0.52
2018-12-13T08:01:51.596Z,0.59
2018-12-13T08:02:51.522Z,0.45
2018-12-13T08:03:51.423Z,0.46
2018-12-13T08:04:51.335Z,0.47
2018-12-13T08:05:51.248Z,0.49
2018-12-13T08:06:51.162Z,0.47
2018-12-13T08:07:51.075Z,0.53
2018-12-13T08:08:50.989Z,0.52
2018-12-13T08:09:50.903Z,0.50
2018-12-13T08:10:50.814Z,0.56
2018-12-13T08:11:50.728Z,0.53
2018-12-13T08:12:50.641Z,0.56
2018-12-13T08:13:50.554Z,0.52
2018-12-13T08:14:50.468Z,0.61
2018-12-13T08:15:50.381Z,0.56
2018-12-13T08:16:50.294Z,0.45
2018-12-13T08:17:50.208Z,0.47
2018-12-13T08:18:50.120Z,0.53
2018-12-13T08:19:50.034Z,0.50
2018-12-13T08:20:49.949Z,0.53
2018-12-13T08:21:49.865Z,0.53
2018-12-13T08:22:49.975Z,0.53
2018-12-13T08:23:49.688Z,0.56
2018-12-13T08:24:49.601Z,0.65
2018-12-13T08:25:49.514Z,0.68
2018-12-13T08:26:49.428Z,0.66
2018-12-13T08:27:49.345Z,0.66
2018-12-13T08:28:49.255Z,0.64
2018-12-13T08:29:49.168Z,0.69
2018-12-13T08:30:49.081Z,0.74
2018-12-13T08:31:48.994Z,0.66
2018-12-13T08:32:48.927Z,0.69
2018-12-13T08:33:48.823Z,0.69
2018-12-13T08:34:48.735Z,0.71
2018-12-13T08:35:48.649Z,0.71
2018-12-13T08:36:48.565Z,0.65
2018-12-13T08:37:48.475Z,0.72
2018-12-13T08:38:48.389Z,0.77
2018-12-13T08:39:48.301Z,0.80
2018-12-13T08:40:48.218Z,0.68
2018-12-13T08:41:48.129Z,0.75
2018-12-13T08:42:48.042Z,0.72
2018-12-13T08:43:47.956Z,0.77
2018-12-13T08:44:47.870Z,0.79
2018-12-13T08:45:47.783Z,0.80
2018-12-13T08:46:47.695Z,0.77
2018-12-13T08:47:47.608Z,0.80
2018-12-13T08:48:47.523Z,0.83
2018-12-13T08:49:47.436Z,0.80
2018-12-13T08:50:47.353Z,0.87
2018-12-13T08:51:47.262Z,0.94
2018-12-13T08:52:47.177Z,1.05
2018-12-13T08:53:47.130Z,1.38
2018-12-13T08:54:47.003Z,1.54
2018-12-13T08:55:46.917Z,1.65
2018-12-13T08:56:46.830Z,1.59
2018-12-13T08:57:46.744Z,1.62
2018-12-13T08:58:46.659Z,1.46
2018-12-13T08:59:46.573Z,1.62
2018-12-13T09:00:46.489Z,1.80
2018-12-13T09:01:46.400Z,1.73
2018-12-13T09:02:46.313Z,1.52
2018-12-13T09:03:46.227Z,1.40
2018-12-13T09:04:46.142Z,1.54
2018-12-13T09:05:46.055Z,1.55
2018-12-13T09:06:45.970Z,1.62
2018-12-13T09:07:45.884Z,1.72
2018-12-13T09:08:45.798Z,1.82
2018-12-13T09:09:45.712Z,1.65
2018-12-13T09:10:45.627Z,1.68
2018-12-13T09:11:45.541Z,1.73
2018-12-13T09:12:45.456Z,1.62
2018-12-13T09:13:45.369Z,1.55
2018-12-13T09:14:45.284Z,1.46
2018-12-13T09:15:45.198Z,1.43
2018-12-13T09:16:45.112Z,1.41
2018-12-13T09:17:45.176Z,1.29
2018-12-13T09:18:44.941Z,1.19
2018-12-13T09:19:44.856Z,1.11
2018-12-13T09:20:44.771Z,1.15
2018-12-13T09:21:44.686Z,1.22
2018-12-13T09:22:44.598Z,1.22
2018-12-13T09:23:44.512Z,1.12
2018-12-13T09:24:44.431Z,1.22
2018-12-13T09:25:44.342Z,1.30
2018-12-13T09:26:44.255Z,1.43
2018-12-13T09:27:44.170Z,1.20
2018-12-13T09:28:44.083Z,1.40
2018-12-13T09:29:43.997Z,1.36
2018-12-13T09:30:43.912Z,1.29
2018-12-13T09:31:43.826Z,1.30
2018-12-13T09:32:43.742Z,1.25
2018-12-13T09:33:43.655Z,1.22
2018-12-13T09:34:43.569Z,1.20
2018-12-13T09:35:43.484Z,1.11
2018-12-13T09:36:43.398Z,1.16
2018-12-13T09:37:47.522Z,1.18
2018-12-13T09:38:43.225Z,1.08
2018-12-13T09:39:43.141Z,1.16
2018-12-13T09:40:43.054Z,1.16
2018-12-13T09:41:42.968Z,1.11
2018-12-13T09:42:42.890Z,1.11
2018-12-13T09:43:42.796Z,1.15
2018-12-13T09:44:42.709Z,1.25
2018-12-13T09:45:42.626Z,1.25
2018-12-13T09:46:42.538Z,1.19
2018-12-13T09:47:42.452Z,1.18
2018-12-13T09:48:42.366Z,1.28
2018-12-13T09:49:42.280Z,1.28
2018-12-13T09:50:42.194Z,1.30
2018-12-13T09:51:42.109Z,1.41
2018-12-13T09:52:42.021Z,1.80
2018-12-13T09:53:41.936Z,1.76
2018-12-13T09:54:41.849Z,1.77
2018-12-13T09:55:41.763Z,1.74
2018-12-13T09:56:41.681Z,2.03
2018-12-13T09:57:41.592Z,2.39
2018-12-13T09:58:41.507Z,2.44
2018-12-13T09:59:41.670Z,2.50
2018-12-13T10:00:41.337Z,2.49
2018-12-13T10:01:41.251Z,2.44
2018-12-13T10:02:41.164Z,2.42
2018-12-13T10:03:41.080Z,2.34
2018-12-13T10:04:41.094Z,2.16
2018-12-13T10:05:40.909Z,2.14
2018-12-13T10:06:40.823Z,2.21
2018-12-13T10:07:40.739Z,2.26
2018-12-13T10:08:46.172Z,2.23
2018-12-13T10:09:40.567Z,2.35
2018-12-13T10:10:40.486Z,2.41
2018-12-13T10:11:40.398Z,2.48
2018-12-13T10:12:40.314Z,2.28
2018-12-13T10:13:40.229Z,2.19
2018-12-13T10:14:40.145Z,2.03
2018-12-13T10:15:40.060Z,2.09
2018-12-13T10:16:39.978Z,1.95
2018-12-13T10:17:39.890Z,1.98
2018-12-13T10:18:39.807Z,1.90
2018-12-13T10:19:39.720Z,2.12
2018-12-13T10:20:39.637Z,2.66
2018-12-13T10:21:39.551Z,2.96
2018-12-13T10:22:39.469Z,2.66
2018-12-13T10:23:39.386Z,2.67
2018-12-13T10:24:39.301Z,3.21
2018-12-13T10:25:39.214Z,3.35
2018-12-13T10:26:39.128Z,3.39
2018-12-13T10:27:39.045Z,3.22
2018-12-13T10:28:38.961Z,3.21
2018-12-13T10:29:38.877Z,3.34
2018-12-13T10:30:38.793Z,3.62
2018-12-13T10:31:38.959Z,3.31
2018-12-13T10:32:38.626Z,3.14
2018-12-13T10:33:38.540Z,2.78
2018-12-13T10:34:38.465Z,2.44
2018-12-13T10:35:38.378Z,2.37
2018-12-13T10:36:38.291Z,2.23
2018-12-13T10:37:38.207Z,2.30
2018-12-13T10:38:38.126Z,2.14
2018-12-13T10:39:38.042Z,2.01
2018-12-13T10:40:37.957Z,2.09
2018-12-13T10:41:37.871Z,2.01
2018-12-13T10:42:37.785Z,2.17
2018-12-13T10:43:37.752Z,2.13
2018-12-13T10:44:37.617Z,2.16
2018-12-13T10:45:37.533Z,2.06
2018-12-13T10:46:37.450Z,2.02
2018-12-13T10:47:37.367Z,1.94
2018-12-13T10:48:37.280Z,1.95
2018-12-13T10:49:37.196Z,1.98
2018-12-13T10:50:37.112Z,2.01
2018-12-13T10:51:37.028Z,2.09
2018-12-13T10:52:36.942Z,2.14
2018-12-13T10:53:36.858Z,2.24
2018-12-13T10:54:36.775Z,2.21
2018-12-13T10:55:36.691Z,2.09
2018-12-13T10:56:36.605Z,2.19
2018-12-13T10:57:36.519Z,2.23
2018-12-13T10:58:36.433Z,2.16
2018-12-13T10:59:36.351Z,2.09
2018-12-13T11:00:36.266Z,2.02
2018-12-13T11:01:36.182Z,1.94
2018-12-13T11:02:36.096Z,2.06
2018-12-13T11:03:36.015Z,1.90
2018-12-13T11:04:35.927Z,1.92
2018-12-13T11:05:36.093Z,2.01
2018-12-13T11:06:35.761Z,2.10
2018-12-13T11:07:35.674Z,2.02
2018-12-13T11:08:35.589Z,2.03
2018-12-13T11:09:35.504Z,2.21
2018-12-13T11:10:35.419Z,2.24
2018-12-13T11:11:35.334Z,2.26
2018-12-13T11:12:35.252Z,2.23
2018-12-13T11:13:35.164Z,2.13
2018-12-13T11:14:35.079Z,2.23
2018-12-13T11:15:34.995Z,2.12
2018-12-13T11:16:34.909Z,2.26
2018-12-13T11:17:34.825Z,2.24
2018-12-13T11:18:34.800Z,2.39
2018-12-13T11:19:34.655Z,2.35
2018-12-13T11:20:34.572Z,2.16
2018-12-13T11:21:34.485Z,2.31
2018-12-13T11:22:34.401Z,2.26
2018-12-13T11:23:34.317Z,2.30
2018-12-13T11:24:34.235Z,2.31
2018-12-13T11:25:34.147Z,2.19
2018-12-13T11:26:34.067Z,2.23
2018-12-13T11:27:33.982Z,2.24
2018-12-13T11:28:33.895Z,2.26
2018-12-13T11:29:33.812Z,2.10
2018-12-13T11:30:33.724Z,2.20
2018-12-13T11:31:33.640Z,2.21
2018-12-13T11:32:33.606Z,2.01
2018-12-13T11:33:33.472Z,1.98
2018-12-13T11:34:33.387Z,2.12
2018-12-13T11:35:33.304Z,2.12
2018-12-13T11:36:33.216Z,2.05
2018-12-13T11:37:33.130Z,1.98
2018-12-13T11:38:33.047Z,1.98
2018-12-13T11:39:32.965Z,1.87
2018-12-13T11:40:32.877Z,1.92
2018-12-13T11:41:32.791Z,1.91
2018-12-13T11:42:32.807Z,2.03
2018-12-13T11:43:32.622Z,2.05
2018-12-13T11:44:32.538Z,2.14
2018-12-13T11:45:32.451Z,2.10
2018-12-13T11:46:32.367Z,2.23
2018-12-13T11:47:32.283Z,2.20
2018-12-13T11:48:32.197Z,2.26
2018-12-13T11:49:32.115Z,2.10
2018-12-13T11:50:32.028Z,2.17
2018-12-13T11:51:31.943Z,2.21
2018-12-13T11:52:31.858Z,2.19
2018-12-13T11:53:31.777Z,2.21
2018-12-13T11:54:31.688Z,2.31
2018-12-13T11:55:31.606Z,2.32
2018-12-13T11:56:31.518Z,2.31
2018-12-13T11:57:31.433Z,2.42
2018-12-13T11:58:31.349Z,2.41
2018-12-13T11:59:31.265Z,2.48
2018-12-13T12:00:31.180Z,2.42
2018-12-13T12:01:31.095Z,2.31
2018-12-13T12:02:31.011Z,2.38
2018-12-13T12:03:30.926Z,2.38
2018-12-13T12:04:30.842Z,2.48
2018-12-13T12:05:30.755Z,2.50
2018-12-13T12:06:30.672Z,2.39
2018-12-13T12:07:30.588Z,2.50
2018-12-13T12:08:30.504Z,2.44
2018-12-13T12:09:30.418Z,2.50
2018-12-13T12:10:30.335Z,2.67
2018-12-13T12:11:30.250Z,2.55
2018-12-13T12:12:30.165Z,2.44
2018-12-13T12:13:30.082Z,2.42
2018-12-13T12:14:29.995Z,2.44
2018-12-13T12:15:29.912Z,2.38
2018-12-13T12:16:29.827Z,2.49
2018-12-13T12:17:29.743Z,2.48
2018-12-13T12:18:29.662Z,2.55
2018-12-13T12:19:29.575Z,2.46
2018-12-13T12:20:29.490Z,2.50
2018-12-13T12:21:29.403Z,2.48
2018-12-13T12:22:29.320Z,2.48
2018-12-13T12:23:29.236Z,2.49
2018-12-13T12:24:29.152Z,2.35
2018-12-13T12:25:29.073Z,2.37
2018-12-13T12:26:28.982Z,2.48
2018-12-13T12:27:28.898Z,2.52
2018-12-13T12:28:28.811Z,2.50
2018-12-13T12:29:28.728Z,2.44
2018-12-13T12:30:28.643Z,2.44
2018-12-13T12:31:28.560Z,2.48
2018-12-13T12:32:28.474Z,2.48
2018-12-13T12:33:28.390Z,2.39
2018-12-13T12:34:28.305Z,2.35
2018-12-13T12:35:28.221Z,2.39
2018-12-13T12:36:28.137Z,2.39
2018-12-13T12:37:28.055Z,2.34
2018-12-13T12:38:27.966Z,2.46
2018-12-13T12:39:27.882Z,2.42
2018-12-13T12:40:27.797Z,2.50
2018-12-13T12:41:27.712Z,2.49
2018-12-13T12:42:27.629Z,2.52
2018-12-13T12:43:27.543Z,2.57
2018-12-13T12:44:27.459Z,2.49
2018-12-13T12:45:27.423Z,2.53
2018-12-13T12:46:27.289Z,2.52
2018-12-13T12:47:27.205Z,2.44
2018-12-13T12:48:27.120Z,2.52
2018-12-13T12:49:27.035Z,2.53
2018-12-13T12:50:26.951Z,2.73
2018-12-13T12:51:26.865Z,2.67
2018-12-13T12:52:26.783Z,2.70
2018-12-13T12:53:26.697Z,2.53
2018-12-13T12:54:26.611Z,2.59
2018-12-13T12:55:26.527Z,2.44
2018-12-13T12:56:26.443Z,2.48
2018-12-13T12:57:26.357Z,2.34
2018-12-13T12:58:26.274Z,2.48
2018-12-13T12:59:26.193Z,2.52
2018-12-13T13:00:26.106Z,2.39
2018-12-13T13:01:26.020Z,2.41
2018-12-13T13:02:25.936Z,2.42
2018-12-13T13:03:25.851Z,2.53
2018-12-13T13:04:25.767Z,2.46
2018-12-13T13:05:25.681Z,2.37
2018-12-13T13:06:25.596Z,2.44
2018-12-13T13:07:25.519Z,2.42
2018-12-13T13:08:25.430Z,2.50
2018-12-13T13:09:25.428Z,2.49
2018-12-13T13:10:25.259Z,2.44
2018-12-13T13:11:25.174Z,2.37